KDFW 191153Z 18010KT 10SM FEW120 SCT300 27/21 A2995 RMK AO2 SLP131 T02720211 10306 20272 53016 $